createdAt,value
2023-05-15T00:00:22.952Z,65.51
2023-05-15T00:02:50.302Z,65.58
2023-05-15T00:05:17.424Z,65.13
2023-05-15T00:07:44.546Z,64.00
2023-05-15T00:10:13.947Z,63.56
2023-05-15T00:12:41.035Z,63.32
2023-05-15T00:15:09.058Z,63.74
2023-05-15T00:17:36.133Z,62.46
2023-05-15T00:20:04.775Z,60.32
2023-05-15T00:22:31.844Z,60.62
2023-05-15T00:24:59.558Z,60.11
2023-05-15T00:27:27.940Z,60.82
2023-05-15T00:29:55.062Z,61.12
2023-05-15T00:32:22.266Z,63.73
2023-05-15T00:34:49.284Z,65.99
2023-05-15T00:37:16.633Z,66.90
2023-05-15T00:39:43.690Z,65.86
2023-05-15T00:42:11.323Z,63.08
2023-05-15T00:44:40.382Z,60.36
2023-05-15T00:47:10.770Z,59.74
2023-05-15T00:49:38.688Z,58.34
2023-05-15T00:52:08.355Z,56.76
2023-05-15T00:54:35.673Z,56.03
2023-05-15T00:57:05.589Z,59.32
2023-05-15T00:59:33.439Z,66.24
2023-05-15T01:02:00.907Z,67.40
2023-05-15T01:04:28.097Z,67.75
2023-05-15T01:06:55.395Z,65.17
2023-05-15T01:09:25.629Z,65.05
2023-05-15T01:11:57.423Z,64.92
2023-05-15T01:14:24.514Z,65.10
2023-05-15T01:16:51.591Z,62.66
2023-05-15T01:19:19.035Z,60.70
2023-05-15T01:22:31.439Z,63.42
2023-05-15T01:25:34.372Z,66.49
2023-05-15T01:28:13.305Z,66.09
2023-05-15T01:30:44.849Z,65.99
2023-05-15T01:33:26.640Z,64.20
2023-05-15T01:36:06.078Z,65.80
2023-05-15T01:38:53.373Z,67.70
2023-05-15T01:41:41.725Z,68.41
2023-05-15T01:47:13.879Z,66.97
2023-05-15T01:49:45.021Z,68.18
2023-05-15T01:52:32.609Z,68.01
2023-05-15T01:55:02.752Z,67.87
2023-05-15T01:57:31.750Z,65.28
2023-05-15T02:00:00.527Z,63.66
2023-05-15T02:02:29.402Z,61.69
2023-05-15T02:04:57.831Z,63.14
2023-05-15T02:07:27.382Z,63.16
2023-05-15T02:09:55.559Z,63.88
2023-05-15T02:12:24.546Z,62.86
2023-05-15T02:14:52.892Z,62.73
2023-05-15T02:17:23.733Z,62.46
2023-05-15T02:19:51.514Z,62.77
2023-05-15T02:22:18.598Z,63.03
2023-05-15T02:24:45.735Z,62.08
2023-05-15T02:27:35.350Z,64.55
2023-05-15T02:30:49.441Z,66.32
2023-05-15T02:34:18.825Z,63.19
2023-05-15T02:36:50.994Z,60.17
2023-05-15T02:39:20.907Z,63.41
2023-05-15T02:41:50.196Z,60.71
2023-05-15T02:44:18.380Z,64.63
2023-05-15T02:46:48.525Z,64.65
2023-05-15T02:49:16.424Z,67.20
2023-05-15T02:51:43.592Z,68.88
2023-05-15T02:54:11.494Z,69.25
2023-05-15T02:56:38.554Z,66.43
2023-05-15T02:59:06.427Z,65.92
2023-05-15T03:01:36.323Z,64.52
2023-05-15T03:04:06.098Z,65.34
2023-05-15T03:06:33.395Z,66.33
2023-05-15T03:09:00.462Z,64.34
2023-05-15T03:11:29.916Z,63.01
2023-05-15T03:13:57.101Z,63.38
2023-05-15T03:16:24.187Z,62.03
2023-05-15T03:18:51.372Z,61.09
2023-05-15T03:21:19.868Z,61.73
2023-05-15T03:23:46.960Z,61.98
2023-05-15T03:26:14.049Z,61.09
2023-05-15T03:28:42.282Z,60.66
2023-05-15T03:31:09.951Z,60.26
2023-05-15T03:33:38.293Z,59.23
2023-05-15T03:36:06.856Z,58.84
2023-05-15T03:38:33.937Z,61.16
2023-05-15T03:41:01.000Z,64.81
2023-05-15T03:43:28.173Z,68.94
2023-05-15T03:45:55.623Z,69.12
2023-05-15T03:48:22.684Z,70.48
2023-05-15T03:50:49.919Z,69.69
2023-05-15T03:53:16.999Z,68.09
2023-05-15T03:55:44.388Z,68.66
2023-05-15T03:58:11.491Z,67.46
2023-05-15T04:00:38.604Z,64.69
2023-05-15T04:03:05.875Z,62.42
2023-05-15T04:05:33.085Z,58.72
2023-05-15T04:08:00.233Z,60.13
2023-05-15T04:10:27.534Z,59.27
2023-05-15T04:12:54.651Z,58.89
2023-05-15T04:15:28.677Z,58.47
2023-05-15T04:17:56.154Z,63.44
2023-05-15T04:20:25.148Z,69.05
2023-05-15T04:22:52.971Z,69.90
2023-05-15T04:25:20.550Z,69.20
2023-05-15T04:27:49.123Z,68.81
2023-05-15T04:30:16.589Z,67.01
2023-05-15T04:32:43.878Z,65.10
2023-05-15T04:35:13.346Z,64.71
2023-05-15T04:37:42.347Z,65.14
2023-05-15T04:40:10.525Z,64.21
2023-05-15T04:42:39.131Z,61.82
2023-05-15T04:45:08.155Z,60.09
2023-05-15T04:47:38.633Z,61.29
2023-05-15T04:50:06.788Z,61.73
2023-05-15T04:52:33.907Z,57.99
2023-05-15T04:55:01.010Z,56.29
2023-05-15T04:57:30.983Z,54.35
2023-05-15T04:59:58.137Z,53.81
2023-05-15T05:02:25.468Z,54.46
2023-05-15T05:04:52.638Z,55.83
2023-05-15T05:07:19.855Z,60.35
2023-05-15T05:09:47.048Z,62.25
2023-05-15T05:12:14.468Z,60.31
2023-05-15T05:14:44.138Z,58.90
2023-05-15T05:17:11.246Z,57.33
2023-05-15T05:19:38.315Z,58.18
2023-05-15T05:22:06.144Z,57.55
2023-05-15T05:24:35.737Z,58.32
2023-05-15T05:27:03.361Z,58.78
2023-05-15T05:29:31.295Z,59.79
2023-05-15T05:31:58.523Z,60.93
2023-05-15T05:34:25.670Z,64.08
2023-05-15T05:36:55.004Z,61.21
2023-05-15T05:39:22.085Z,62.69
2023-05-15T05:41:49.286Z,60.95
2023-05-15T05:44:16.608Z,61.19
2023-05-15T05:46:45.182Z,61.37
2023-05-15T05:49:12.355Z,62.02
2023-05-15T05:51:39.511Z,62.64
2023-05-15T05:54:06.663Z,61.73
2023-05-15T05:56:33.931Z,61.91
2023-05-15T05:59:01.989Z,61.19
2023-05-15T06:01:29.468Z,61.97
2023-05-15T06:03:57.870Z,60.29
2023-05-15T06:06:25.086Z,60.64
2023-05-15T06:08:54.188Z,60.43
2023-05-15T06:11:25.101Z,58.96
2023-05-15T06:13:52.739Z,56.36
2023-05-15T06:16:19.924Z,56.13
2023-05-15T06:18:47.081Z,54.66
2023-05-15T06:21:14.157Z,54.50
2023-05-15T06:23:41.430Z,56.06
2023-05-15T06:26:08.549Z,55.79
2023-05-15T06:28:35.732Z,54.76
2023-05-15T06:31:02.999Z,55.81
2023-05-15T06:33:36.561Z,54.59
2023-05-15T06:36:03.841Z,54.67
2023-05-15T06:38:31.031Z,54.89
2023-05-15T06:40:58.254Z,53.68
2023-05-15T06:43:25.438Z,53.21
2023-05-15T06:45:52.512Z,51.70
2023-05-15T06:48:19.715Z,52.29
2023-05-15T06:50:46.858Z,53.06
2023-05-15T06:53:14.648Z,52.33
2023-05-15T06:55:41.879Z,52.74
2023-05-15T06:58:09.030Z,53.00
2023-05-15T07:00:36.065Z,50.49
2023-05-15T07:03:03.281Z,51.28
2023-05-15T07:05:30.705Z,50.74
2023-05-15T07:07:57.895Z,49.77
2023-05-15T07:10:25.158Z,47.72
2023-05-15T07:12:52.621Z,46.41
2023-05-15T07:15:19.910Z,48.09
2023-05-15T07:17:47.084Z,52.52
2023-05-15T07:20:14.302Z,49.43
2023-05-15T07:22:51.920Z,47.64
2023-05-15T07:25:26.146Z,46.85
2023-05-15T07:27:53.675Z,45.78
2023-05-15T07:30:20.980Z,47.26
2023-05-15T07:32:48.060Z,47.25
2023-05-15T07:35:16.218Z,48.51
2023-05-15T07:37:43.339Z,46.30
2023-05-15T07:40:10.939Z,45.05
2023-05-15T07:42:39.761Z,43.49
2023-05-15T07:45:08.253Z,41.43
2023-05-15T07:47:35.974Z,41.80
2023-05-15T07:50:03.734Z,41.65
2023-05-15T07:52:31.020Z,41.70
2023-05-15T07:54:58.209Z,40.42
2023-05-15T07:57:26.402Z,40.32
2023-05-15T07:59:53.482Z,39.83
2023-05-15T08:02:20.707Z,40.50
2023-05-15T08:04:47.838Z,41.32
2023-05-15T08:07:15.639Z,42.41
2023-05-15T08:09:42.835Z,42.23
2023-05-15T08:12:23.613Z,41.26
2023-05-15T08:14:53.659Z,41.58
2023-05-15T08:17:22.181Z,41.97
2023-05-15T08:19:49.953Z,42.33
2023-05-15T08:22:17.433Z,41.51
2023-05-15T08:24:45.382Z,42.47
2023-05-15T08:27:12.457Z,41.79
2023-05-15T08:29:40.361Z,42.98
2023-05-15T08:32:09.434Z,42.52
2023-05-15T08:34:36.473Z,43.75
2023-05-15T08:37:04.573Z,44.06
2023-05-15T08:39:31.804Z,44.86
2023-05-15T08:42:24.651Z,45.49
2023-05-15T08:44:52.682Z,45.40
2023-05-15T08:47:23.088Z,45.00
2023-05-15T08:50:15.169Z,45.49
2023-05-15T08:52:47.747Z,45.21
2023-05-15T08:55:15.807Z,45.43
2023-05-15T08:57:45.604Z,44.21
2023-05-15T09:00:14.507Z,43.41
2023-05-15T09:02:43.084Z,44.89
2023-05-15T09:05:10.972Z,43.82
2023-05-15T09:07:42.572Z,44.04
2023-05-15T09:10:11.108Z,46.14
2023-05-15T09:12:44.884Z,46.94
2023-05-15T09:15:21.868Z,46.82
2023-05-15T09:17:50.474Z,45.60
2023-05-15T09:20:38.234Z,44.70
2023-05-15T09:23:21.797Z,44.83
2023-05-15T09:25:53.234Z,43.97
2023-05-15T09:28:33.738Z,43.43
2023-05-15T09:31:09.056Z,42.77
2023-05-15T09:33:42.481Z,44.13
2023-05-15T09:36:10.656Z,42.96
2023-05-15T09:38:43.921Z,43.64
2023-05-15T09:41:11.549Z,44.34
2023-05-15T09:43:41.230Z,43.96
2023-05-15T09:46:09.402Z,43.27
2023-05-15T09:48:37.012Z,44.12
2023-05-15T09:51:18.563Z,43.68
2023-05-15T09:53:53.274Z,44.43
2023-05-15T09:56:21.820Z,44.65
2023-05-15T09:58:57.625Z,46.43
2023-05-15T10:01:26.549Z,45.93
2023-05-15T10:04:06.661Z,49.06
2023-05-15T10:06:43.160Z,50.09
2023-05-15T10:09:11.720Z,48.50
2023-05-15T10:11:52.854Z,48.44
2023-05-15T10:14:22.316Z,48.35
2023-05-15T10:16:57.033Z,49.03
2023-05-15T10:19:27.506Z,46.33
2023-05-15T10:21:56.053Z,46.28
2023-05-15T10:24:25.756Z,45.88
2023-05-15T10:26:55.630Z,46.20
2023-05-15T10:29:25.339Z,44.90
2023-05-15T10:31:53.575Z,48.28
2023-05-15T10:34:21.139Z,49.45
2023-05-15T10:36:50.883Z,48.34
2023-05-15T10:39:19.046Z,47.06
2023-05-15T10:41:47.023Z,44.99
2023-05-15T10:44:15.626Z,45.83
2023-05-15T10:46:44.153Z,48.17
2023-05-15T10:49:11.270Z,47.96
2023-05-15T10:51:40.345Z,46.37
2023-05-15T10:54:09.862Z,45.81
2023-05-15T10:56:42.082Z,47.48
2023-05-15T10:59:11.739Z,45.58
2023-05-15T11:01:41.259Z,45.04
2023-05-15T11:04:19.252Z,45.15
2023-05-15T11:06:50.874Z,41.74
2023-05-15T11:09:27.885Z,42.51
2023-05-15T11:12:05.978Z,38.87
2023-05-15T11:15:03.164Z,39.81
2023-05-15T11:17:35.694Z,42.25
2023-05-15T11:20:05.306Z,43.39
2023-05-15T11:22:37.551Z,40.62
2023-05-15T11:25:14.481Z,37.33
2023-05-15T11:27:47.775Z,36.31
2023-05-15T11:30:24.985Z,37.80
2023-05-15T11:33:08.914Z,35.77
2023-05-15T11:35:48.851Z,33.30
2023-05-15T11:38:26.216Z,36.95
2023-05-15T11:40:59.019Z,32.52
2023-05-15T11:43:31.977Z,35.56
2023-05-15T11:46:02.791Z,33.66
2023-05-15T11:48:42.861Z,33.11
2023-05-15T11:51:27.576Z,31.84
2023-05-15T11:53:56.680Z,32.89
2023-05-15T11:56:28.384Z,30.99
2023-05-15T11:59:04.062Z,31.38
2023-05-15T12:01:47.619Z,32.04
2023-05-15T12:04:17.222Z,29.39
2023-05-15T12:06:47.360Z,32.19
2023-05-15T12:09:19.492Z,29.24
2023-05-15T12:11:57.655Z,28.53
2023-05-15T12:14:32.063Z,27.54
2023-05-15T12:17:04.365Z,27.27
2023-05-15T12:19:33.807Z,29.37
2023-05-15T12:22:01.148Z,31.94
2023-05-15T12:24:28.211Z,31.09
2023-05-15T12:26:57.420Z,32.77
2023-05-15T12:29:26.624Z,27.73
2023-05-15T12:31:54.331Z,27.02
2023-05-15T12:34:22.121Z,25.42
2023-05-15T12:36:49.236Z,29.09
2023-05-15T12:39:16.451Z,28.11
2023-05-15T12:41:49.117Z,28.39
2023-05-15T12:44:18.429Z,26.93
2023-05-15T12:46:47.554Z,30.50
2023-05-15T12:49:21.532Z,30.42
2023-05-15T12:51:49.061Z,32.62
2023-05-15T12:54:26.226Z,29.04
2023-05-15T12:56:54.694Z,28.62
2023-05-15T12:59:22.829Z,34.09
2023-05-15T13:01:50.417Z,33.61
2023-05-15T13:04:17.994Z,34.28
2023-05-15T13:07:19.627Z,36.54
2023-05-15T13:10:01.783Z,40.55
2023-05-15T13:12:42.597Z,44.71
2023-05-15T13:15:39.186Z,50.21
2023-05-15T13:18:14.186Z,53.20
2023-05-15T13:20:47.977Z,61.10
2023-05-15T13:23:19.710Z,61.24
2023-05-15T13:25:47.347Z,60.60
2023-05-15T13:28:16.945Z,61.36
2023-05-15T13:30:44.057Z,61.35
2023-05-15T13:33:12.966Z,62.38
2023-05-15T13:35:42.952Z,64.17
2023-05-15T13:38:12.672Z,64.63
2023-05-15T13:40:40.258Z,64.26
2023-05-15T13:43:07.402Z,65.33
2023-05-15T13:45:35.158Z,67.18
2023-05-15T13:48:02.423Z,66.30
2023-05-15T13:50:29.925Z,66.75
2023-05-15T13:52:57.064Z,66.32
2023-05-15T13:55:26.060Z,67.41
2023-05-15T13:58:03.240Z,69.83
2023-05-15T14:00:30.480Z,67.88
2023-05-15T14:02:57.676Z,68.35
2023-05-15T14:05:24.864Z,67.88
2023-05-15T14:07:51.884Z,69.52
2023-05-15T14:10:20.726Z,71.71
2023-05-15T14:12:47.873Z,70.63
2023-05-15T14:15:15.151Z,71.70
2023-05-15T14:17:43.198Z,72.42
2023-05-15T14:20:11.649Z,69.98
2023-05-15T14:22:42.520Z,69.57
2023-05-15T14:25:13.248Z,69.70
2023-05-15T14:27:40.926Z,69.16
2023-05-15T14:30:09.076Z,69.66
2023-05-15T14:32:39.261Z,70.07
2023-05-15T14:35:06.708Z,68.13
2023-05-15T14:37:33.897Z,68.42
2023-05-15T14:40:00.973Z,69.09
2023-05-15T14:42:28.194Z,68.21
2023-05-15T14:44:55.286Z,67.43
2023-05-15T14:47:22.560Z,66.01
2023-05-15T14:49:49.670Z,64.88
2023-05-15T14:52:16.774Z,64.00
2023-05-15T14:54:45.909Z,64.54
2023-05-15T14:57:19.238Z,66.82
2023-05-15T14:59:47.471Z,66.07
2023-05-15T15:02:14.557Z,66.31
2023-05-15T15:04:41.722Z,66.32
2023-05-15T15:07:13.173Z,65.11
2023-05-15T15:09:40.463Z,65.81
2023-05-15T15:12:07.931Z,66.07
2023-05-15T15:14:36.231Z,65.43
2023-05-15T15:17:04.147Z,67.83
2023-05-15T15:19:31.358Z,66.00
2023-05-15T15:21:58.523Z,64.96
2023-05-15T15:24:25.640Z,67.94
2023-05-15T15:26:52.676Z,68.46
2023-05-15T15:29:19.883Z,68.54
2023-05-15T15:31:46.925Z,68.10
2023-05-15T15:34:14.051Z,66.63
2023-05-15T15:36:41.451Z,66.84
2023-05-15T15:39:08.667Z,67.73
2023-05-15T15:41:38.610Z,66.85
2023-05-15T15:44:05.918Z,67.56
2023-05-15T15:46:33.219Z,65.16
2023-05-15T15:49:00.496Z,63.24
2023-05-15T15:51:28.138Z,64.22
2023-05-15T15:53:55.350Z,66.99
2023-05-15T15:56:22.695Z,70.75
2023-05-15T15:58:51.068Z,69.65
2023-05-15T16:01:21.512Z,67.96
2023-05-15T16:03:48.747Z,66.80
2023-05-15T16:06:15.993Z,69.21
2023-05-15T16:08:43.042Z,68.07
2023-05-15T16:11:10.157Z,66.55
2023-05-15T16:13:38.315Z,67.18
2023-05-15T16:16:06.836Z,65.37
2023-05-15T16:18:34.896Z,65.23
2023-05-15T16:21:02.134Z,64.38
2023-05-15T16:23:32.785Z,63.75
2023-05-15T16:25:59.871Z,62.93
2023-05-15T16:28:26.972Z,65.87
2023-05-15T16:30:54.272Z,65.76
2023-05-15T16:33:21.595Z,63.40
2023-05-15T16:35:49.566Z,63.45
2023-05-15T16:38:18.105Z,62.35
2023-05-15T16:40:46.405Z,64.73
2023-05-15T16:43:14.093Z,65.16
2023-05-15T16:45:41.272Z,65.63
2023-05-15T16:48:08.512Z,64.54
2023-05-15T16:50:37.658Z,63.82
2023-05-15T16:53:05.124Z,63.92
2023-05-15T16:55:33.053Z,64.18
2023-05-15T16:58:00.381Z,64.73
2023-05-15T17:00:27.732Z,64.25
2023-05-15T17:05:22.327Z,65.52
2023-05-15T17:07:49.380Z,64.96
2023-05-15T17:10:16.519Z,65.34
2023-05-15T17:12:43.797Z,64.52
2023-05-15T17:15:13.351Z,66.24
2023-05-15T17:17:40.633Z,65.86
2023-05-15T17:20:09.145Z,63.28
2023-05-15T17:22:36.760Z,63.58
2023-05-15T17:25:04.296Z,63.63
2023-05-15T17:27:32.222Z,64.95
2023-05-15T17:29:59.248Z,63.81
2023-05-15T17:32:28.551Z,63.81
2023-05-15T17:34:55.741Z,61.82
2023-05-15T17:37:22.909Z,61.22
2023-05-15T17:39:51.053Z,60.72
2023-05-15T17:42:18.165Z,63.45
2023-05-15T17:44:45.239Z,65.42
2023-05-15T17:47:12.426Z,66.34
2023-05-15T17:49:39.843Z,64.43
2023-05-15T17:52:08.954Z,66.76
2023-05-15T17:54:36.026Z,67.01
2023-05-15T17:57:03.172Z,68.07
2023-05-15T17:59:31.161Z,68.04
2023-05-15T18:01:58.384Z,68.92
2023-05-15T18:04:25.583Z,67.99
2023-05-15T18:06:52.709Z,67.77
2023-05-15T18:09:24.424Z,69.73
2023-05-15T18:11:52.101Z,69.36
2023-05-15T18:14:19.155Z,66.29
2023-05-15T18:16:46.196Z,64.37
2023-05-15T18:19:14.069Z,64.48
2023-05-15T18:21:41.188Z,66.66
2023-05-15T18:24:08.254Z,66.16
2023-05-15T18:26:35.376Z,64.58
2023-05-15T18:29:02.424Z,64.58
2023-05-15T18:31:29.547Z,63.38
2023-05-15T18:33:56.770Z,63.22
2023-05-15T18:36:23.923Z,63.21
2023-05-15T18:38:51.280Z,63.04
2023-05-15T18:41:18.285Z,65.15
2023-05-15T18:43:45.300Z,66.62
2023-05-15T18:46:12.317Z,66.26
2023-05-15T18:48:39.349Z,66.00
2023-05-15T18:51:06.463Z,65.43
2023-05-15T18:53:33.514Z,66.47
2023-05-15T18:56:00.511Z,65.82
2023-05-15T18:58:27.584Z,66.46
2023-05-15T19:00:56.350Z,64.77
2023-05-15T19:03:25.600Z,65.92
2023-05-15T19:05:52.774Z,64.09
2023-05-15T19:08:19.789Z,65.92
2023-05-15T19:10:50.393Z,65.78
2023-05-15T19:13:17.494Z,64.96
2023-05-15T19:15:52.264Z,63.50
2023-05-15T19:18:19.864Z,63.08
2023-05-15T19:20:50.475Z,63.88
2023-05-15T19:23:17.823Z,63.04
2023-05-15T19:25:45.061Z,64.93
2023-05-15T19:28:12.943Z,63.56
2023-05-15T19:30:40.083Z,63.33
2023-05-15T19:33:07.279Z,61.63
2023-05-15T19:35:37.489Z,61.54
2023-05-15T19:38:04.896Z,62.82
2023-05-15T19:40:31.998Z,65.35
2023-05-15T19:42:59.042Z,66.58
2023-05-15T19:45:26.079Z,64.17
2023-05-15T19:47:53.262Z,63.67
2023-05-15T19:50:20.430Z,63.87
2023-05-15T19:52:47.570Z,63.89
2023-05-15T19:55:15.062Z,62.66
2023-05-15T19:57:44.902Z,62.61
2023-05-15T20:00:13.963Z,62.02
2023-05-15T20:02:42.315Z,62.41
2023-05-15T20:05:09.982Z,62.30
2023-05-15T20:07:38.139Z,61.64
2023-05-15T20:10:07.635Z,63.08
2023-05-15T20:12:34.853Z,64.19
2023-05-15T20:15:04.220Z,63.21
2023-05-15T20:17:33.772Z,62.76
2023-05-15T20:20:02.177Z,62.69
2023-05-15T20:22:32.312Z,63.15
2023-05-15T20:25:01.645Z,65.44
2023-05-15T20:27:28.849Z,66.98
2023-05-15T20:29:55.971Z,65.22
2023-05-15T20:32:23.181Z,63.20
2023-05-15T20:34:50.656Z,61.87
2023-05-15T20:37:18.218Z,63.15
2023-05-15T20:39:45.614Z,68.42
2023-05-15T20:42:12.730Z,66.20
2023-05-15T20:44:44.559Z,65.51
2023-05-15T20:47:11.718Z,63.50
2023-05-15T20:49:39.006Z,61.71
2023-05-15T20:52:06.542Z,60.10
2023-05-15T20:54:33.732Z,60.66
2023-05-15T20:57:01.008Z,64.11
2023-05-15T20:59:30.351Z,62.80
2023-05-15T21:01:57.516Z,63.70
2023-05-15T21:04:24.710Z,64.99
2023-05-15T21:06:52.207Z,65.29
2023-05-15T21:09:19.312Z,65.90
2023-05-15T21:11:47.218Z,66.48
2023-05-15T21:14:14.626Z,64.71
2023-05-15T21:16:41.835Z,64.76
2023-05-15T21:19:08.991Z,62.96
2023-05-15T21:21:36.224Z,63.24
2023-05-15T21:24:03.835Z,66.08
2023-05-15T21:26:31.178Z,66.67
2023-05-15T21:29:02.280Z,65.17
2023-05-15T21:31:29.580Z,63.72
2023-05-15T21:33:56.813Z,62.62
2023-05-15T21:36:24.081Z,60.62
2023-05-15T21:38:51.185Z,63.08
2023-05-15T21:41:18.282Z,62.49
2023-05-15T21:43:45.709Z,65.39
2023-05-15T21:46:13.152Z,62.21
2023-05-15T21:48:42.595Z,63.45
2023-05-15T21:51:09.630Z,63.36
2023-05-15T21:53:37.812Z,63.10
2023-05-15T21:56:05.496Z,62.92
2023-05-15T21:58:32.736Z,64.44
2023-05-15T22:00:59.782Z,64.05
2023-05-15T22:03:27.057Z,63.13
2023-05-15T22:05:54.209Z,63.86
2023-05-15T22:08:21.571Z,64.07
2023-05-15T22:10:49.606Z,64.50
2023-05-15T22:13:16.729Z,63.80
2023-05-15T22:15:43.919Z,63.84
2023-05-15T22:18:12.471Z,62.78
2023-05-15T22:20:39.489Z,64.24
2023-05-15T22:23:07.174Z,63.51
2023-05-15T22:25:34.221Z,63.82
2023-05-15T22:28:01.255Z,63.60
2023-05-15T22:31:07.361Z,64.20
2023-05-15T22:33:34.454Z,63.65
2023-05-15T22:36:01.515Z,61.92
2023-05-15T22:38:28.566Z,64.21
2023-05-15T22:40:55.722Z,64.09
2023-05-15T22:43:22.806Z,64.47
2023-05-15T22:45:49.936Z,64.18
2023-05-15T22:48:17.057Z,64.50
2023-05-15T22:50:44.764Z,63.44
2023-05-15T22:53:11.857Z,63.83
2023-05-15T22:55:38.972Z,63.29
2023-05-15T22:58:06.235Z,63.33
2023-05-15T23:00:33.924Z,62.49
2023-05-15T23:03:00.995Z,62.87
2023-05-15T23:05:28.186Z,64.25
2023-05-15T23:07:55.537Z,63.72
2023-05-15T23:10:22.813Z,64.01
2023-05-15T23:12:51.033Z,63.86
2023-05-15T23:15:18.162Z,63.85
2023-05-15T23:17:45.464Z,63.42
2023-05-15T23:20:13.444Z,65.47
2023-05-15T23:22:40.619Z,63.17
2023-05-15T23:25:08.859Z,63.71
2023-05-15T23:27:35.882Z,63.91
2023-05-15T23:30:03.305Z,64.96
2023-05-15T23:32:30.481Z,63.78
2023-05-15T23:34:58.721Z,62.86
2023-05-15T23:37:25.945Z,65.77
2023-05-15T23:39:55.152Z,64.90
2023-05-15T23:42:23.345Z,64.35
2023-05-15T23:44:51.071Z,63.22
2023-05-15T23:47:18.182Z,63.73
2023-05-15T23:49:45.249Z,64.04
2023-05-15T23:52:12.287Z,63.19
2023-05-15T23:54:40.468Z,63.70
2023-05-15T23:57:07.543Z,63.04
2023-05-15T23:59:34.620Z,62.24
